createdAt,value
2023-04-22T00:01:51.491Z,38.20
2023-04-22T00:04:21.317Z,38.90
2023-04-22T00:06:49.729Z,38.30
2023-04-22T00:09:20.882Z,38.40
2023-04-22T00:11:50.468Z,38.30
2023-04-22T00:14:18.663Z,38.20
2023-04-22T00:16:47.015Z,38.20
2023-04-22T00:19:15.122Z,38.30
2023-04-22T00:21:43.240Z,38.20
2023-04-22T00:24:11.292Z,38.20
2023-04-22T00:26:39.414Z,38.30
2023-04-22T00:29:08.904Z,38.30
2023-04-22T00:31:36.993Z,38.30
2023-04-22T00:34:05.170Z,38.30
2023-04-22T00:36:33.236Z,38.30
2023-04-22T00:39:01.431Z,38.30
2023-04-22T00:41:31.025Z,38.30
2023-04-22T00:44:01.184Z,38.40
2023-04-22T00:46:31.852Z,38.40
2023-04-22T00:49:00.268Z,38.40
2023-04-22T00:51:28.339Z,38.50
2023-04-22T00:53:56.444Z,38.50
2023-04-22T00:56:27.584Z,38.50
2023-04-22T00:58:56.464Z,38.50
2023-04-22T01:01:24.873Z,38.50
2023-04-22T01:03:55.158Z,38.50
2023-04-22T01:06:25.422Z,38.50
2023-04-22T01:08:53.560Z,38.50
2023-04-22T01:11:21.686Z,38.50
2023-04-22T01:13:49.794Z,38.60
2023-04-22T01:16:18.233Z,38.60
2023-04-22T01:18:46.709Z,38.60
2023-04-22T01:21:17.123Z,38.70
2023-04-22T01:23:46.790Z,38.60
2023-04-22T01:26:14.893Z,38.70
2023-04-22T01:28:43.313Z,38.60
2023-04-22T01:31:11.460Z,38.70
2023-04-22T01:33:39.823Z,38.70
2023-04-22T01:36:09.827Z,38.70
2023-04-22T01:38:39.866Z,38.70
2023-04-22T01:41:09.654Z,38.70
2023-04-22T01:43:37.655Z,38.60
2023-04-22T01:46:06.799Z,38.60
2023-04-22T01:48:35.974Z,38.60
2023-04-22T01:51:04.362Z,38.60
2023-04-22T01:53:32.517Z,38.60
2023-04-22T01:56:01.270Z,38.50
2023-04-22T01:58:32.052Z,38.60
2023-04-22T02:01:00.186Z,38.50
2023-04-22T02:03:28.404Z,38.40
2023-04-22T02:05:56.594Z,38.60
2023-04-22T02:08:24.699Z,38.50
2023-04-22T02:10:52.776Z,38.50
2023-04-22T02:13:20.857Z,38.50
2023-04-22T02:15:50.630Z,38.40
2023-04-22T02:18:19.836Z,38.40
2023-04-22T02:20:47.893Z,38.40
2023-04-22T02:23:16.042Z,38.40
2023-04-22T02:25:49.670Z,38.40
2023-04-22T02:28:18.207Z,38.40
2023-04-22T02:30:47.032Z,38.40
2023-04-22T02:33:16.490Z,38.40
2023-04-22T02:35:44.539Z,38.40
2023-04-22T02:38:12.658Z,38.40
2023-04-22T02:40:40.809Z,38.50
2023-04-22T02:43:08.898Z,38.50
2023-04-22T02:45:36.994Z,38.50
2023-04-22T02:48:05.376Z,38.50
2023-04-22T02:50:34.817Z,38.50
2023-04-22T02:53:02.925Z,38.50
2023-04-22T02:55:30.998Z,38.40
2023-04-22T02:57:59.072Z,38.40
2023-04-22T03:00:27.382Z,38.40
2023-04-22T03:02:55.801Z,38.40
2023-04-22T03:05:24.104Z,38.40
2023-04-22T03:07:53.893Z,38.40
2023-04-22T03:10:22.102Z,38.50
2023-04-22T03:12:50.269Z,38.40
2023-04-22T03:15:21.122Z,38.40
2023-04-22T03:17:49.745Z,38.40
2023-04-22T03:20:17.917Z,38.40
2023-04-22T03:22:46.070Z,38.40
2023-04-22T03:25:15.605Z,38.40
2023-04-22T03:27:43.712Z,38.40
2023-04-22T03:30:12.399Z,38.40
2023-04-22T03:32:40.541Z,38.40
2023-04-22T03:35:09.087Z,38.40
2023-04-22T03:37:37.171Z,38.40
2023-04-22T03:40:06.034Z,38.40
2023-04-22T03:42:35.503Z,38.40
2023-04-22T03:45:03.686Z,38.40
2023-04-22T03:47:31.816Z,38.40
2023-04-22T03:49:59.891Z,38.40
2023-04-22T03:52:27.981Z,38.40
2023-04-22T03:54:56.024Z,38.40
2023-04-22T03:57:24.137Z,38.40
2023-04-22T03:59:53.562Z,38.40
2023-04-22T04:02:21.729Z,38.40
2023-04-22T04:04:50.156Z,38.40
2023-04-22T04:07:18.446Z,38.40
2023-04-22T04:09:46.693Z,38.40
2023-04-22T04:12:14.783Z,38.40
2023-04-22T04:14:42.859Z,38.40
2023-04-22T04:17:14.154Z,38.30
2023-04-22T04:19:42.643Z,38.40
2023-04-22T04:22:11.019Z,38.30
2023-04-22T04:24:42.129Z,38.30
2023-04-22T04:27:11.830Z,38.20
2023-04-22T04:29:41.387Z,38.30
2023-04-22T04:32:10.023Z,38.30
2023-04-22T04:34:39.604Z,38.30
2023-04-22T04:37:07.957Z,38.20
2023-04-22T04:39:36.028Z,38.10
2023-04-22T04:42:04.189Z,38.20
2023-04-22T04:44:32.696Z,38.20
2023-04-22T04:47:00.976Z,38.20
2023-04-22T04:49:30.620Z,38.20
2023-04-22T04:52:01.831Z,38.20
2023-04-22T04:54:30.359Z,38.10
2023-04-22T04:56:58.566Z,38.10
2023-04-22T04:59:26.652Z,38.20
2023-04-22T05:01:56.113Z,38.20
2023-04-22T05:04:24.458Z,38.20
2023-04-22T05:06:52.755Z,38.20
2023-04-22T05:09:22.200Z,38.00
2023-04-22T05:11:50.688Z,37.90
2023-04-22T05:14:18.737Z,38.40
2023-04-22T05:16:46.923Z,39.30
2023-04-22T05:19:15.012Z,40.20
2023-04-22T05:21:43.113Z,40.40
2023-04-22T05:24:11.152Z,40.50
2023-04-22T05:26:40.697Z,40.60
2023-04-22T05:29:09.007Z,40.90
2023-04-22T05:31:37.104Z,41.00
2023-04-22T05:34:05.241Z,41.30
2023-04-22T05:36:33.301Z,41.40
2023-04-22T05:39:01.658Z,41.90
2023-04-22T05:41:29.757Z,41.70
2023-04-22T05:43:59.256Z,41.70
2023-04-22T05:46:27.451Z,41.50
2023-04-22T05:48:56.148Z,41.50
2023-04-22T05:51:24.649Z,41.50
2023-04-22T05:53:52.725Z,42.10
2023-04-22T05:56:22.129Z,41.50
2023-04-22T05:58:50.213Z,41.40
2023-04-22T06:01:19.691Z,41.50
2023-04-22T06:03:48.197Z,41.90
2023-04-22T06:06:16.466Z,41.80
2023-04-22T06:08:44.559Z,41.60
2023-04-22T06:11:12.617Z,41.60
2023-04-22T06:13:40.698Z,41.50
2023-04-22T06:18:43.528Z,41.10
2023-04-22T06:21:11.782Z,41.00
2023-04-22T06:23:39.851Z,41.00
2023-04-22T06:26:07.991Z,41.10
2023-04-22T06:28:36.108Z,40.80
2023-04-22T06:31:04.274Z,40.70
2023-04-22T06:33:32.504Z,40.50
2023-04-22T06:36:02.031Z,40.50
2023-04-22T06:38:30.127Z,40.50
2023-04-22T06:40:58.190Z,40.50
2023-04-22T06:43:26.414Z,40.30
2023-04-22T06:45:54.456Z,40.10
2023-04-22T06:48:22.575Z,39.90
2023-04-22T06:50:50.607Z,40.10
2023-04-22T06:53:20.247Z,39.90
2023-04-22T06:55:48.361Z,39.80
2023-04-22T06:58:16.462Z,39.80
2023-04-22T07:00:44.602Z,40.20
2023-04-22T07:03:12.849Z,40.50
2023-04-22T07:05:41.080Z,40.60
2023-04-22T07:08:09.274Z,40.80
2023-04-22T07:10:38.770Z,41.00
2023-04-22T07:13:06.932Z,41.20
2023-04-22T07:15:35.371Z,41.10
2023-04-22T07:18:03.461Z,40.90
2023-04-22T07:20:31.536Z,40.80
2023-04-22T07:22:59.630Z,40.60
2023-04-22T07:25:27.699Z,40.50
2023-04-22T07:27:57.166Z,40.40
2023-04-22T07:30:25.405Z,40.20
2023-04-22T07:32:53.608Z,40.10
2023-04-22T07:35:21.698Z,39.90
2023-04-22T07:37:49.770Z,39.90
2023-04-22T07:40:18.028Z,40.20
2023-04-22T07:42:46.147Z,39.80
2023-04-22T07:45:15.623Z,39.90
2023-04-22T07:47:43.799Z,40.20
2023-04-22T07:50:12.549Z,40.50
2023-04-22T07:52:40.822Z,40.40
2023-04-22T07:55:09.867Z,40.60
2023-04-22T07:57:39.120Z,40.90
2023-04-22T08:00:08.836Z,41.10
2023-04-22T08:02:38.190Z,41.20
2023-04-22T08:05:07.338Z,41.30
2023-04-22T08:07:35.480Z,40.60
2023-04-22T08:10:03.691Z,40.40
2023-04-22T08:12:31.736Z,40.10
2023-04-22T08:14:59.808Z,40.00
2023-04-22T08:17:28.247Z,39.70
2023-04-22T08:19:57.748Z,39.70
2023-04-22T08:22:25.821Z,39.60
2023-04-22T08:24:53.933Z,39.40
2023-04-22T08:27:22.892Z,38.80
2023-04-22T08:29:51.002Z,38.10
2023-04-22T08:32:20.071Z,37.80
2023-04-22T08:37:19.937Z,36.90
2023-04-22T08:39:47.804Z,36.40
2023-04-22T08:42:16.415Z,36.30
2023-04-22T08:44:46.354Z,35.90
2023-04-22T08:47:15.822Z,35.70
2023-04-22T08:49:44.773Z,35.40
2023-04-22T08:52:15.283Z,35.10
2023-04-22T08:54:44.777Z,34.90
2023-04-22T08:57:13.272Z,34.80
2023-04-22T08:59:42.587Z,34.70
2023-04-22T09:02:14.701Z,34.20
2023-04-22T09:04:43.776Z,34.20
2023-04-22T09:07:15.287Z,33.90
2023-04-22T09:09:45.982Z,33.50
2023-04-22T09:12:14.180Z,33.50
2023-04-22T09:14:43.073Z,33.30
2023-04-22T09:17:11.576Z,33.10
2023-04-22T09:19:39.973Z,33.10
2023-04-22T09:22:14.220Z,32.80
2023-04-22T09:24:50.093Z,32.60
2023-04-22T09:27:18.344Z,32.40
2023-04-22T09:29:50.323Z,32.30
2023-04-22T09:32:18.510Z,32.40
2023-04-22T09:34:52.560Z,32.10
2023-04-22T09:37:23.975Z,32.00
2023-04-22T09:39:53.950Z,31.80
2023-04-22T09:42:23.345Z,31.60
2023-04-22T09:44:53.280Z,31.40
2023-04-22T09:47:23.646Z,30.90
2023-04-22T09:49:51.988Z,30.90
2023-04-22T09:52:26.863Z,30.50
2023-04-22T09:54:56.449Z,29.40
2023-04-22T09:57:25.305Z,27.90
2023-04-22T09:59:54.111Z,28.40
2023-04-22T10:02:30.220Z,28.90
2023-04-22T10:04:58.999Z,28.80
2023-04-22T10:07:31.532Z,28.80
2023-04-22T10:10:01.375Z,28.40
2023-04-22T10:12:35.172Z,27.50
2023-04-22T10:15:04.584Z,29.00
2023-04-22T10:17:36.420Z,29.70
2023-04-22T10:20:07.787Z,30.00
2023-04-22T10:22:36.698Z,30.50
2023-04-22T10:25:06.911Z,30.90
2023-04-22T10:27:35.034Z,31.30
2023-04-22T10:30:03.274Z,31.70
2023-04-22T10:32:32.018Z,31.90
2023-04-22T10:35:11.907Z,32.20
2023-04-22T10:37:43.561Z,32.60
2023-04-22T10:40:17.215Z,32.80
2023-04-22T10:42:50.292Z,33.00
2023-04-22T10:45:18.389Z,33.10
2023-04-22T10:47:46.670Z,33.30
2023-04-22T10:50:26.492Z,33.30
2023-04-22T10:52:58.409Z,33.40
2023-04-22T10:55:50.454Z,34.20
2023-04-22T10:58:21.752Z,33.50
2023-04-22T11:00:54.542Z,33.70
2023-04-22T11:03:28.728Z,33.70
2023-04-22T11:06:17.044Z,33.70
2023-04-22T11:08:48.975Z,33.80
2023-04-22T11:11:20.608Z,33.90
2023-04-22T11:13:51.956Z,33.90
2023-04-22T11:16:23.411Z,34.00
2023-04-22T11:18:51.750Z,34.10
2023-04-22T11:21:20.695Z,34.00
2023-04-22T11:23:52.887Z,33.90
2023-04-22T11:26:35.056Z,33.90
2023-04-22T11:29:03.197Z,34.00
2023-04-22T11:31:31.310Z,34.00
2023-04-22T11:34:00.556Z,34.00
2023-04-22T11:36:28.844Z,33.90
2023-04-22T11:38:57.262Z,34.00
2023-04-22T11:41:26.755Z,34.10
2023-04-22T11:43:55.693Z,34.30
2023-04-22T11:46:30.668Z,34.30
2023-04-22T11:49:13.539Z,34.30
2023-04-22T11:51:54.344Z,34.10
2023-04-22T11:54:32.708Z,34.00
2023-04-22T11:57:04.393Z,34.00
2023-04-22T11:59:33.711Z,34.00
2023-04-22T12:02:01.958Z,34.00
2023-04-22T12:04:30.080Z,33.80
2023-04-22T12:06:58.487Z,33.70
2023-04-22T12:09:26.848Z,33.70
2023-04-22T12:11:54.927Z,33.70
2023-04-22T12:14:32.460Z,33.70
2023-04-22T12:17:00.728Z,33.90
2023-04-22T12:19:28.819Z,34.00
2023-04-22T12:21:57.585Z,34.30
2023-04-22T12:24:29.702Z,34.40
2023-04-22T12:26:58.643Z,34.50
2023-04-22T12:29:33.480Z,34.70
2023-04-22T12:32:01.918Z,34.60
2023-04-22T12:34:30.053Z,34.50
2023-04-22T12:36:58.108Z,34.40
2023-04-22T12:39:26.229Z,34.30
2023-04-22T12:41:54.339Z,33.80
2023-04-22T12:44:24.892Z,33.80
2023-04-22T12:46:54.754Z,34.10
2023-04-22T12:49:23.012Z,34.50
2023-04-22T12:51:51.328Z,34.40
2023-04-22T12:54:20.627Z,34.10
2023-04-22T12:56:49.268Z,33.90
2023-04-22T12:59:17.451Z,33.60
2023-04-22T13:01:45.663Z,34.20
2023-04-22T13:04:15.294Z,33.50
2023-04-22T13:06:44.371Z,33.60
2023-04-22T13:09:13.004Z,33.60
2023-04-22T13:11:41.147Z,33.40
2023-04-22T13:14:09.236Z,33.50
2023-04-22T13:16:37.421Z,33.70
2023-04-22T13:19:05.613Z,33.70
2023-04-22T13:21:35.849Z,31.60
2023-04-22T13:24:04.304Z,31.00
2023-04-22T13:26:32.420Z,31.20
2023-04-22T13:29:02.657Z,31.00
2023-04-22T13:31:31.121Z,31.00
2023-04-22T13:33:59.274Z,29.90
2023-04-22T13:36:27.850Z,30.00
2023-04-22T13:38:58.726Z,30.20
2023-04-22T13:41:26.800Z,30.10
2023-04-22T13:43:56.264Z,30.30
2023-04-22T13:46:25.034Z,30.80
2023-04-22T13:48:53.289Z,31.00
2023-04-22T13:51:21.389Z,30.70
2023-04-22T13:53:49.482Z,30.40
2023-04-22T13:56:18.988Z,30.50
2023-04-22T13:58:47.705Z,29.90
2023-04-22T14:01:16.041Z,30.90
2023-04-22T14:03:44.477Z,32.10
2023-04-22T14:06:12.880Z,32.20
2023-04-22T14:08:41.535Z,32.30
2023-04-22T14:11:10.127Z,32.60
2023-04-22T14:13:40.415Z,32.90
2023-04-22T14:16:10.160Z,33.30
2023-04-22T14:18:39.460Z,33.50
2023-04-22T14:21:09.345Z,33.70
2023-04-22T14:23:37.925Z,33.10
2023-04-22T14:26:06.600Z,32.60
2023-04-22T14:28:35.410Z,32.60
2023-04-22T14:31:05.421Z,33.30
2023-04-22T14:33:33.712Z,32.50
2023-04-22T14:36:01.885Z,32.10
2023-04-22T14:38:30.202Z,32.40
2023-04-22T14:40:58.378Z,33.60
2023-04-22T14:43:26.532Z,34.20
2023-04-22T14:45:54.757Z,34.30
2023-04-22T14:48:29.986Z,34.50
2023-04-22T14:50:59.834Z,35.00
2023-04-22T14:53:28.306Z,34.90
2023-04-22T14:55:57.053Z,35.20
2023-04-22T14:58:27.021Z,35.60
2023-04-22T15:00:55.202Z,36.50
2023-04-22T15:03:24.845Z,34.90
2023-04-22T15:05:53.084Z,33.80
2023-04-22T15:08:21.723Z,33.80
2023-04-22T15:10:49.903Z,33.50
2023-04-22T15:13:18.111Z,33.40
2023-04-22T15:15:46.796Z,33.20
2023-04-22T15:18:14.968Z,33.50
2023-04-22T15:20:44.762Z,33.60
2023-04-22T15:23:12.948Z,34.00
2023-04-22T15:25:41.169Z,35.20
2023-04-22T15:28:09.403Z,35.70
2023-04-22T15:30:37.600Z,35.30
2023-04-22T15:33:06.157Z,35.60
2023-04-22T15:35:34.406Z,35.10
2023-04-22T15:38:04.007Z,34.50
2023-04-22T15:40:31.895Z,34.20
2023-04-22T15:42:59.961Z,35.00
2023-04-22T15:45:28.137Z,35.60
2023-04-22T15:47:56.563Z,35.50
2023-04-22T15:50:25.124Z,35.70
2023-04-22T15:52:54.080Z,36.10
2023-04-22T15:55:23.950Z,36.00
2023-04-22T15:57:52.011Z,36.10
2023-04-22T16:00:20.224Z,36.30
2023-04-22T16:02:55.218Z,37.10
2023-04-22T16:05:24.915Z,36.60
2023-04-22T16:07:53.300Z,36.70
2023-04-22T16:10:23.348Z,36.80
2023-04-22T16:12:51.878Z,36.80
2023-04-22T16:15:20.058Z,37.00
2023-04-22T16:17:48.152Z,37.20
2023-04-22T16:20:16.291Z,37.60
2023-04-22T16:22:44.367Z,37.60
2023-04-22T16:25:12.496Z,37.80
2023-04-22T16:27:42.042Z,38.20
2023-04-22T16:30:10.274Z,38.30
2023-04-22T16:32:38.396Z,38.50
2023-04-22T16:35:07.556Z,38.40
2023-04-22T16:37:36.744Z,38.40
2023-04-22T16:40:06.186Z,38.60
2023-04-22T16:42:34.312Z,38.90
2023-04-22T16:45:03.837Z,39.00
2023-04-22T16:47:31.873Z,39.20
2023-04-22T16:50:00.074Z,39.30
2023-04-22T16:52:28.246Z,39.40
2023-04-22T16:54:57.051Z,39.60
2023-04-22T16:57:25.098Z,39.80
2023-04-22T16:59:53.173Z,39.80
2023-04-22T17:02:22.829Z,40.00
2023-04-22T17:04:51.056Z,40.10
2023-04-22T17:07:19.199Z,40.10
2023-04-22T17:09:48.834Z,40.10
2023-04-22T17:12:16.780Z,40.10
2023-04-22T17:14:44.887Z,40.30
2023-04-22T17:17:13.760Z,40.30
2023-04-22T17:19:44.018Z,40.40
2023-04-22T17:22:12.607Z,40.50
2023-04-22T17:24:41.801Z,40.50
2023-04-22T17:27:09.882Z,40.60
2023-04-22T17:29:38.172Z,40.70
2023-04-22T17:32:06.706Z,40.80
2023-04-22T17:34:34.856Z,41.10
2023-04-22T17:37:04.292Z,41.40
2023-04-22T17:39:32.600Z,41.30
2023-04-22T17:42:00.717Z,41.40
2023-04-22T17:44:28.853Z,41.50
2023-04-22T17:46:56.966Z,41.50
2023-04-22T17:49:25.245Z,41.60
2023-04-22T17:51:53.318Z,41.80
2023-04-22T17:54:22.828Z,41.80
2023-04-22T17:56:50.898Z,41.70
2023-04-22T17:59:19.022Z,41.80
2023-04-22T18:01:47.118Z,41.80
2023-04-22T18:04:15.343Z,41.90
2023-04-22T18:06:43.498Z,41.90
2023-04-22T18:09:11.566Z,41.90
2023-04-22T18:11:41.205Z,42.00
2023-04-22T18:14:09.100Z,41.90
2023-04-22T18:16:37.275Z,41.90
2023-04-22T18:19:06.825Z,42.70
2023-04-22T18:21:34.952Z,42.60
2023-04-22T18:24:03.738Z,42.70
2023-04-22T18:26:32.269Z,42.70
2023-04-22T18:29:01.736Z,42.80
2023-04-22T18:31:30.006Z,42.80
2023-04-22T18:33:58.139Z,42.80
2023-04-22T18:36:27.605Z,42.70
2023-04-22T18:38:55.782Z,42.80
2023-04-22T18:41:25.319Z,42.70
2023-04-22T18:43:53.697Z,42.70
2023-04-22T18:46:23.850Z,42.70
2023-04-22T18:48:52.049Z,42.70
2023-04-22T18:51:20.142Z,42.70
2023-04-22T18:53:49.060Z,42.70
2023-04-22T18:56:17.195Z,42.60
2023-04-22T18:58:45.280Z,42.70
2023-04-22T19:01:14.438Z,42.70
2023-04-22T19:03:44.157Z,42.70
2023-04-22T19:06:12.874Z,42.70
2023-04-22T19:08:40.947Z,42.60
2023-04-22T19:11:09.229Z,42.80
2023-04-22T19:13:37.360Z,43.80
2023-04-22T19:16:05.618Z,43.30
2023-04-22T19:18:33.727Z,43.40
2023-04-22T19:21:03.501Z,43.50
2023-04-22T19:23:31.630Z,43.60
2023-04-22T19:25:59.734Z,43.50
2023-04-22T19:28:27.825Z,44.60
2023-04-22T19:30:56.387Z,44.80
2023-04-22T19:33:24.501Z,45.10
2023-04-22T19:35:52.639Z,45.20
2023-04-22T19:38:23.215Z,45.00
2023-04-22T19:40:51.424Z,45.20
2023-04-22T19:43:19.583Z,45.10
2023-04-22T19:45:47.678Z,45.20
2023-04-22T19:48:16.404Z,45.10
2023-04-22T19:50:45.626Z,45.10
2023-04-22T19:53:14.764Z,45.20
2023-04-22T19:55:45.067Z,45.10
2023-04-22T19:58:13.928Z,45.10
2023-04-22T20:00:42.833Z,45.10
2023-04-22T20:03:13.242Z,45.10
2023-04-22T20:05:42.307Z,45.10
2023-04-22T20:08:11.362Z,45.00
2023-04-22T20:10:39.648Z,45.00
2023-04-22T20:13:09.739Z,44.90
2023-04-22T20:15:38.140Z,44.90
2023-04-22T20:18:06.857Z,45.00
2023-04-22T20:20:35.283Z,45.00
2023-04-22T20:23:10.239Z,44.90
2023-04-22T20:25:40.700Z,44.80
2023-04-22T20:28:10.895Z,44.90
2023-04-22T20:30:39.583Z,44.90
2023-04-22T20:33:08.029Z,44.80
2023-04-22T20:35:36.729Z,44.80
2023-04-22T20:38:06.742Z,44.80
2023-04-22T20:40:35.936Z,44.80
2023-04-22T20:43:04.368Z,44.90
2023-04-22T20:45:33.814Z,44.90
2023-04-22T20:48:01.987Z,44.90
2023-04-22T20:50:33.469Z,44.90
2023-04-22T20:53:02.115Z,44.90
2023-04-22T20:55:30.231Z,44.90
2023-04-22T20:57:58.348Z,44.80
2023-04-22T21:00:27.030Z,44.80
2023-04-22T21:02:57.022Z,44.80
2023-04-22T21:05:26.141Z,44.80
2023-04-22T21:07:55.123Z,44.80
2023-04-22T21:10:24.128Z,44.80
2023-04-22T21:12:54.996Z,44.80
2023-04-22T21:15:25.079Z,44.80
2023-04-22T21:17:56.586Z,44.80
2023-04-22T21:20:28.215Z,44.80
2023-04-22T21:22:59.650Z,44.70
2023-04-22T21:25:28.814Z,44.70
2023-04-22T21:27:57.513Z,44.70
2023-04-22T21:30:26.312Z,44.70
2023-04-22T21:32:54.439Z,44.70
2023-04-22T21:35:24.005Z,44.70
2023-04-22T21:37:54.110Z,44.60
2023-04-22T21:40:22.369Z,44.60
2023-04-22T21:42:50.650Z,44.60
2023-04-22T21:45:18.914Z,44.60
2023-04-22T21:47:47.246Z,44.60
2023-04-22T21:50:15.403Z,44.60
2023-04-22T21:52:43.617Z,44.60
2023-04-22T21:55:13.092Z,44.60
2023-04-22T21:57:41.261Z,44.50
2023-04-22T22:00:15.107Z,44.60
2023-04-22T22:02:43.649Z,44.50
2023-04-22T22:05:12.357Z,44.60
2023-04-22T22:07:40.680Z,44.60
2023-04-22T22:10:10.645Z,44.50
2023-04-22T22:12:40.132Z,44.50
2023-04-22T22:15:09.917Z,44.50
2023-04-22T22:17:40.139Z,44.50
2023-04-22T22:20:11.870Z,44.50
2023-04-22T22:22:40.468Z,44.50
2023-04-22T22:25:10.381Z,44.50
2023-04-22T22:27:41.813Z,44.60
2023-04-22T22:30:10.631Z,44.50
2023-04-22T22:32:38.888Z,44.50
2023-04-22T22:35:07.587Z,44.50
2023-04-22T22:37:35.913Z,44.40
2023-04-22T22:40:04.537Z,44.40
2023-04-22T22:42:32.729Z,44.50
2023-04-22T22:45:02.226Z,44.40
2023-04-22T22:47:30.453Z,44.60
2023-04-22T22:49:58.606Z,44.40
2023-04-22T22:52:26.782Z,44.50
2023-04-22T22:54:54.974Z,44.50
2023-04-22T22:57:23.137Z,44.60
2023-04-22T22:59:51.214Z,44.40
2023-04-22T23:02:20.881Z,44.50
2023-04-22T23:04:48.931Z,44.50
2023-04-22T23:07:17.857Z,44.50
2023-04-22T23:09:45.936Z,44.50
2023-04-22T23:12:14.025Z,44.50
2023-04-22T23:14:42.505Z,44.40
2023-04-22T23:17:11.001Z,44.50
2023-04-22T23:19:42.393Z,44.40
2023-04-22T23:22:12.539Z,44.40
2023-04-22T23:24:41.594Z,44.50
2023-04-22T23:27:10.541Z,45.10
2023-04-22T23:29:39.659Z,44.40
2023-04-22T23:32:09.223Z,44.40
2023-04-22T23:34:40.801Z,44.40
2023-04-22T23:37:13.656Z,44.40
2023-04-22T23:39:42.507Z,44.50
2023-04-22T23:42:10.822Z,44.40
2023-04-22T23:44:39.107Z,44.40
2023-04-22T23:47:07.600Z,44.40
2023-04-22T23:49:35.708Z,44.40
2023-04-22T23:52:03.896Z,44.40
2023-04-22T23:54:33.851Z,44.40
2023-04-22T23:57:02.832Z,44.40
2023-04-22T23:59:31.585Z,44.40
